Time;durP1;ratioP1;P1;durP2;ratioP2;P2;SDS_P1;SDS_P2;PMS_P1;PMS_P2;Temp;Humidity;BMP_temperature;BMP_pressure;BME280_temperature;BME280_humidity;BME280_pressure;Samples;Min_cycle;Max_cycle;Signal;HPM_P1;HPM_P2
2023/04/11 00:01:31;;;;;;;30.70;15.90;;;;;;;;;;110143;1279;22112;-75
2023/04/11 00:03:57;;;;;;;32.00;16.60;;;;;;;;;;110171;1279;22115;-74
2023/04/11 00:06:23;;;;;;;34.60;16.70;;;;;;;;;;110344;1257;22193;-75
2023/04/11 00:08:49;;;;;;;34.00;17.30;;;;;;;;;;110131;1279;22123;-75
2023/04/11 00:11:15;;;;;;;32.30;17.20;;;;;;;;;;110146;1279;22825;-75
2023/04/11 00:13:41;;;;;;;32.30;16.10;;;;;;;;;;110094;1279;22953;-75
2023/04/11 00:16:08;;;;;;;32.60;16.80;;;;;;;;;;110305;1279;22333;-77
2023/04/11 00:18:36;;;;;;;30.90;16.10;;;;;;;;;;110454;1263;22191;-74
2023/04/11 00:21:05;;;;;;;30.10;15.20;;;;;;;;;;110070;1278;22745;-75
2023/04/11 00:23:31;;;;;;;27.50;14.40;;;;;;;;;;110315;1279;22038;-75
2023/04/11 00:25:57;;;;;;;27.20;13.80;;;;;;;;;;110067;1280;22476;-76
2023/04/11 00:28:24;;;;;;;26.40;13.30;;;;;;;;;;110365;1260;22153;-75
2023/04/11 00:30:50;;;;;;;25.10;13.50;;;;;;;;;;110143;1280;22204;-75
2023/04/11 00:33:17;;;;;;;27.40;13.50;;;;;;;;;;110070;1280;22742;-75
2023/04/11 00:35:43;;;;;;;26.20;13.20;;;;;;;;;;110128;1280;22119;-75
2023/04/11 00:38:10;;;;;;;26.20;13.90;;;;;;;;;;110176;1260;22154;-75
2023/04/11 00:40:36;;;;;;;22.90;13.10;;;;;;;;;;110081;1280;22133;-75
2023/04/11 00:43:03;;;;;;;25.80;12.80;;;;;;;;;;110136;1280;22823;-75
2023/04/11 00:45:29;;;;;;;26.20;13.80;;;;;;;;;;110124;1280;22150;-75
2023/04/11 00:47:55;;;;;;;27.00;14.10;;;;;;;;;;110132;1262;22134;-75
2023/04/11 00:50:23;;;;;;;26.90;13.40;;;;;;;;;;110052;1280;22144;-75
2023/04/11 00:52:51;;;;;;;28.50;13.50;;;;;;;;;;110123;1280;22088;-75
2023/04/11 00:55:17;;;;;;;27.10;13.80;;;;;;;;;;110151;1280;22156;-75
2023/04/11 00:57:44;;;;;;;27.60;13.40;;;;;;;;;;110185;1259;22115;-75
2023/04/11 01:00:11;;;;;;;25.10;13.20;;;;;;;;;;110137;1280;23168;-75
2023/04/11 01:02:41;;;;;;;26.00;13.20;;;;;;;;;;110078;1281;22092;-75
2023/04/11 01:05:11;;;;;;;25.50;13.40;;;;;;;;;;110082;1281;22402;-76
2023/04/11 01:07:39;;;;;;;28.10;13.40;;;;;;;;;;110198;1257;22031;-75
2023/04/11 01:10:06;;;;;;;26.40;13.30;;;;;;;;;;110135;1280;22196;-75
2023/04/11 01:12:33;;;;;;;26.10;13.50;;;;;;;;;;110148;1280;22201;-75
2023/04/11 01:14:59;;;;;;;25.20;13.70;;;;;;;;;;110084;1280;22812;-75
2023/04/11 01:17:25;;;;;;;25.70;13.20;;;;;;;;;;110023;1280;22488;-75
2023/04/11 01:19:53;;;;;;;28.40;13.70;;;;;;;;;;110055;1263;22812;-75
2023/04/11 01:22:20;;;;;;;26.30;13.00;;;;;;;;;;110045;1280;22109;-75
2023/04/11 01:24:46;;;;;;;23.90;12.40;;;;;;;;;;110096;1280;22224;-75
2023/04/11 01:27:13;;;;;;;26.10;13.20;;;;;;;;;;110205;1280;22145;-75
2023/04/11 01:29:40;;;;;;;23.30;12.70;;;;;;;;;;110071;1258;22210;-75
2023/04/11 01:32:07;;;;;;;22.60;11.70;;;;;;;;;;110010;1280;22464;-75
2023/04/11 01:34:34;;;;;;;24.50;12.60;;;;;;;;;;110046;1281;22886;-75
2023/04/11 01:37:02;;;;;;;22.50;11.90;;;;;;;;;;109991;1281;22171;-75
2023/04/11 01:39:28;;;;;;;25.60;12.70;;;;;;;;;;110107;1257;22130;-75
2023/04/11 01:41:56;;;;;;;25.80;13.40;;;;;;;;;;110188;1280;22934;-75
2023/04/11 01:44:24;;;;;;;24.70;12.60;;;;;;;;;;110186;1280;22942;-75
2023/04/11 01:46:51;;;;;;;26.90;12.60;;;;;;;;;;110097;1280;22861;-75
2023/04/11 01:49:20;;;;;;;22.70;12.10;;;;;;;;;;110243;1260;22507;-75
2023/04/11 01:51:47;;;;;;;26.40;12.80;;;;;;;;;;110070;1281;22108;-75
2023/04/11 01:54:14;;;;;;;22.60;11.40;;;;;;;;;;110032;1280;22293;-75
2023/04/11 01:56:41;;;;;;;21.30;11.40;;;;;;;;;;110094;1280;22159;-75
2023/04/11 01:59:08;;;;;;;24.90;11.60;;;;;;;;;;110289;1257;22185;-75
2023/04/11 02:01:35;;;;;;;23.50;11.30;;;;;;;;;;110185;1280;22997;-75
2023/04/11 02:04:02;;;;;;;23.50;12.60;;;;;;;;;;110182;1280;22139;-75
2023/04/11 02:06:30;;;;;;;22.00;11.40;;;;;;;;;;110056;1280;22180;-75
2023/04/11 02:08:57;;;;;;;26.70;11.80;;;;;;;;;;110209;1257;22114;-75
2023/04/11 02:11:24;;;;;;;22.50;12.20;;;;;;;;;;110023;1280;22233;-75
2023/04/11 02:13:51;;;;;;;22.60;11.70;;;;;;;;;;110131;1280;22107;-75
2023/04/11 02:16:19;;;;;;;23.30;11.80;;;;;;;;;;110113;1280;22852;-75
2023/04/11 02:18:46;;;;;;;24.10;12.70;;;;;;;;;;110030;1256;22842;-75
2023/04/11 02:21:13;;;;;;;41.50;18.50;;;;;;;;;;110042;1280;22116;-75
2023/04/11 02:23:39;;;;;;;35.10;16.00;;;;;;;;;;110131;1280;22624;-75
2023/04/11 02:26:06;;;;;;;38.20;16.60;;;;;;;;;;110172;1266;22179;-75
2023/04/11 02:28:35;;;;;;;34.70;15.70;;;;;;;;;;110121;1270;21897;-75
2023/04/11 02:31:03;;;;;;;29.50;14.00;;;;;;;;;;110011;1260;22987;-75
2023/04/11 02:33:31;;;;;;;32.30;14.90;;;;;;;;;;110029;1280;22138;-75
2023/04/11 02:36:00;;;;;;;35.60;14.40;;;;;;;;;;110015;1280;23258;-75
2023/04/11 02:38:28;;;;;;;31.60;14.00;;;;;;;;;;110143;1269;22814;-75
2023/04/11 02:40:59;;;;;;;32.00;15.30;;;;;;;;;;110208;1259;22129;-75
2023/04/11 02:43:28;;;;;;;36.20;15.30;;;;;;;;;;110110;1280;22140;-75
2023/04/11 02:45:56;;;;;;;34.10;15.00;;;;;;;;;;110073;1280;22104;-75
2023/04/11 02:48:23;;;;;;;32.70;14.40;;;;;;;;;;110012;1280;22033;-75
2023/04/11 02:50:52;;;;;;;30.10;14.80;;;;;;;;;;110217;1260;22877;-75
2023/04/11 02:53:20;;;;;;;29.20;13.20;;;;;;;;;;110140;1280;22169;-75
2023/04/11 02:55:50;;;;;;;24.20;11.40;;;;;;;;;;110040;1280;22132;-75
2023/04/11 02:58:19;;;;;;;26.20;12.30;;;;;;;;;;110148;1265;22904;-76
2023/04/11 03:00:48;;;;;;;25.80;12.40;;;;;;;;;;110199;1258;22836;-76
2023/04/11 03:03:16;;;;;;;23.80;11.80;;;;;;;;;;110049;1280;22763;-76
2023/04/11 03:05:46;;;;;;;22.10;12.00;;;;;;;;;;110037;1281;22107;-76
2023/04/11 03:08:17;;;;;;;19.20;10.10;;;;;;;;;;110064;1280;22074;-76
2023/04/11 03:10:50;;;;;;;19.20;10.30;;;;;;;;;;110095;1259;22177;-76
2023/04/11 03:13:20;;;;;;;21.80;10.20;;;;;;;;;;110047;1280;22126;-76
2023/04/11 03:15:48;;;;;;;18.70;9.30;;;;;;;;;;110160;1275;22766;-76
2023/04/11 03:18:16;;;;;;;17.20;9.10;;;;;;;;;;110140;1280;22195;-76
2023/04/11 03:23:25;;;;;;;16.00;8.00;;;;;;;;;;110115;1273;22428;-77
2023/04/11 03:25:53;;;;;;;16.40;8.20;;;;;;;;;;110022;1281;22871;-76
2023/04/11 03:28:24;;;;;;;20.00;8.80;;;;;;;;;;110008;1281;22117;-76
2023/04/11 03:30:53;;;;;;;19.10;9.00;;;;;;;;;;110115;1259;22207;-76
2023/04/11 03:33:23;;;;;;;20.10;8.50;;;;;;;;;;110032;1280;22904;-76
2023/04/11 03:35:51;;;;;;;19.00;8.70;;;;;;;;;;110067;1281;22043;-77
2023/04/11 03:38:20;;;;;;;19.40;9.10;;;;;;;;;;110147;1281;22809;-76
2023/04/11 03:40:47;;;;;;;18.60;9.50;;;;;;;;;;110218;1262;22136;-76
2023/04/11 03:43:19;;;;;;;18.10;8.70;;;;;;;;;;110037;1281;22207;-76
2023/04/11 03:45:46;;;;;;;19.50;9.50;;;;;;;;;;110103;1270;22128;-76
2023/04/11 03:48:40;;;;;;;16.90;9.40;;;;;;;;;;109663;1288;22183;-76
2023/04/11 03:51:09;;;;;;;19.50;8.70;;;;;;;;;;109689;1268;22175;-76
2023/04/11 03:53:41;;;;;;;19.20;9.00;;;;;;;;;;109793;1287;22192;-76
2023/04/11 03:56:56;;;;;;;17.60;9.00;;;;;;;;;;109294;1292;22187;-76
2023/04/11 03:59:25;;;;;;;17.20;9.30;;;;;;;;;;109275;1281;22397;-76
2023/04/11 04:02:01;;;;;;;19.80;9.40;;;;;;;;;;110055;1261;22137;-76
2023/04/11 04:04:32;;;;;;;17.40;9.70;;;;;;;;;;110098;1281;22471;-76
2023/04/11 04:11:04;;;;;;;23.10;10.70;;;;;;;;;;109900;1260;22210;-76
2023/04/11 04:13:35;;;;;;;24.60;12.20;;;;;;;;;;109925;1283;22918;-76
2023/04/11 04:16:16;;;;;;;25.20;11.10;;;;;;;;;;109991;1283;22278;-76
2023/04/11 04:18:47;;;;;;;22.00;10.40;;;;;;;;;;109914;1283;22243;-76
2023/04/11 04:21:14;;;;;;;21.50;10.00;;;;;;;;;;109936;1262;22253;-76
2023/04/11 04:23:48;;;;;;;20.70;10.00;;;;;;;;;;109835;1284;22973;-75
2023/04/11 04:34:53;;;;;;;21.50;12.00;;;;;;;;;;103995;1292;548998;-82
2023/04/11 04:37:28;;;;;;;23.20;11.60;;;;;;;;;;106510;1285;22264;-81
2023/04/11 04:40:40;;;;;;;22.20;10.90;;;;;;;;;;106076;1289;22539;-82
2023/04/11 04:43:12;;;;;;;23.60;10.90;;;;;;;;;;106098;1264;22541;-77
2023/04/11 04:46:16;;;;;;;19.10;10.60;;;;;;;;;;105929;1290;22677;-78
2023/04/11 04:48:48;;;;;;;19.60;9.80;;;;;;;;;;104088;1288;2817992;-77
2023/04/11 04:51:14;;;;;;;21.40;9.70;;;;;;;;;;106139;1288;22527;-78
2023/04/11 04:53:43;;;;;;;20.80;10.20;;;;;;;;;;106255;1269;22523;-77
2023/04/11 04:56:10;;;;;;;20.90;10.60;;;;;;;;;;106280;1288;22816;-77
2023/04/11 04:58:39;;;;;;;19.80;11.00;;;;;;;;;;106112;1288;22551;-78
2023/04/11 05:01:10;;;;;;;21.70;11.20;;;;;;;;;;105975;1288;22631;-75
2023/04/11 05:03:37;;;;;;;22.50;11.50;;;;;;;;;;105956;1277;22595;-80
2023/04/11 05:06:09;;;;;;;20.60;10.30;;;;;;;;;;106037;1284;24237;-83
2023/04/11 05:08:38;;;;;;;22.50;11.50;;;;;;;;;;106311;1284;24352;-78
2023/04/11 05:11:49;;;;;;;19.60;10.10;;;;;;;;;;106390;1266;22488;-83
2023/04/11 05:14:16;;;;;;;20.50;11.10;;;;;;;;;;106362;1267;22593;-82
2023/04/11 05:16:42;;;;;;;20.50;11.30;;;;;;;;;;106066;1284;25236;-80
2023/04/11 05:19:09;;;;;;;21.50;11.80;;;;;;;;;;106334;1284;25449;-77
2023/04/11 05:21:38;;;;;;;22.50;11.30;;;;;;;;;;106368;1284;22520;-83
2023/04/11 05:24:12;;;;;;;21.00;11.60;;;;;;;;;;106244;1278;22591;-83
2023/04/11 05:26:39;;;;;;;24.10;11.80;;;;;;;;;;106364;1285;22739;-80
2023/04/11 05:29:06;;;;;;;21.30;10.70;;;;;;;;;;106459;1285;22536;-79
2023/04/11 05:31:38;;;;;;;20.30;10.80;;;;;;;;;;106331;1285;23079;-85
2023/04/11 05:34:15;;;;;;;22.70;10.90;;;;;;;;;;106555;1264;25466;-86
2023/04/11 05:36:45;;;;;;;23.40;11.30;;;;;;;;;;106256;1285;22673;-87
2023/04/11 05:39:41;;;;;;;;;;;;;;;;;;;;;
2023/04/11 05:42:17;;;;;;;24.70;12.80;;;;;;;;;;106420;1286;22529;-78
2023/04/11 05:44:48;;;;;;;26.10;13.50;;;;;;;;;;106519;1266;24238;-84
2023/04/11 05:47:41;;;;;;;25.80;14.60;;;;;;;;;;106494;1285;25414;-83
2023/04/11 05:50:20;;;;;;;26.40;13.90;;;;;;;;;;106509;1285;25580;-82
2023/04/11 05:52:46;;;;;;;27.10;13.10;;;;;;;;;;106399;1285;22566;-86
2023/04/11 05:55:25;;;;;;;;;;;;;;;;;;;;;
2023/04/11 05:58:30;;;;;;;;;;;;;;;;;;;;;
2023/04/11 06:01:22;;;;;;;26.00;14.20;;;;;;;;;;106480;1283;22932;-80
2023/04/11 06:04:15;;;;;;;41.70;19.40;;;;;;;;;;106437;1275;25452;-85
2023/04/11 06:07:12;;;;;;;33.90;16.20;;;;;;;;;;106710;1267;24366;-79
2023/04/11 06:09:41;;;;;;;35.00;16.60;;;;;;;;;;106152;1285;25290;-80
2023/04/11 06:12:12;;;;;;;32.40;15.20;;;;;;;;;;106139;1285;25417;-81
2023/04/11 06:14:50;;;;;;;34.10;15.70;;;;;;;;;;106362;1285;22534;-80
2023/04/11 06:17:20;;;;;;;28.80;15.20;;;;;;;;;;106227;1269;22556;-79
2023/04/11 06:19:46;;;;;;;27.80;13.60;;;;;;;;;;106543;1286;22533;-77
2023/04/11 06:26:02;;;;;;;24.40;12.70;;;;;;;;;;106420;1262;22575;-80
2023/04/11 06:32:16;;;;;;;26.60;12.60;;;;;;;;;;105882;1292;22699;-85
2023/04/11 06:35:23;;;;;;;23.60;11.90;;;;;;;;;;105704;1273;24220;-78
2023/04/11 06:38:33;;;;;;;21.80;11.50;;;;;;;;;;106644;1285;22579;-84
2023/04/11 06:41:32;;;;;;;22.60;11.50;;;;;;;;;;106562;1285;24378;-83
2023/04/11 06:44:03;;;;;;;21.30;11.10;;;;;;;;;;106607;1284;22551;-82
2023/04/11 06:47:10;;;;;;;21.40;11.00;;;;;;;;;;106562;1285;23001;-83
2023/04/11 06:49:42;;;;;;;20.90;10.80;;;;;;;;;;106532;1285;22674;-88
2023/04/11 06:52:31;;;;;;;20.50;11.50;;;;;;;;;;106518;1285;22552;-83
2023/04/11 06:55:14;;;;;;;;;;;;;;;;;;;;;
2023/04/11 07:09:08;;;;;;;18.70;9.80;;;;;;;;;;106507;1285;25365;-83
2023/04/11 07:11:47;;;;;;;19.40;10.50;;;;;;;;;;106586;1285;24183;-81
2023/04/11 07:14:13;;;;;;;19.60;10.60;;;;;;;;;;106436;1285;22630;-80
2023/04/11 07:16:50;;;;;;;19.50;10.50;;;;;;;;;;106411;1285;22544;-82
2023/04/11 07:19:19;;;;;;;22.40;10.80;;;;;;;;;;106367;1269;22597;-85
2023/04/11 07:21:55;;;;;;;21.60;10.70;;;;;;;;;;106056;1286;22534;-79
2023/04/11 07:24:21;;;;;;;20.40;11.20;;;;;;;;;;106124;1286;24234;-81
2023/04/11 07:26:50;;;;;;;23.10;11.80;;;;;;;;;;106404;1286;25244;-83
2023/04/11 07:29:16;;;;;;;24.20;12.20;;;;;;;;;;106354;1269;22656;-81
2023/04/11 07:31:43;;;;;;;19.90;11.20;;;;;;;;;;106437;1285;24349;-82
2023/04/11 07:34:30;;;;;;;22.20;11.90;;;;;;;;;;106443;1285;25399;-79
2023/04/11 07:36:59;;;;;;;22.40;12.00;;;;;;;;;;106395;1285;24337;-85
2023/04/11 07:39:28;;;;;;;21.10;11.60;;;;;;;;;;106467;1269;24415;-82
2023/04/11 07:41:55;;;;;;;23.50;11.30;;;;;;;;;;109829;1286;22204;-77
2023/04/11 07:44:21;;;;;;;21.20;11.10;;;;;;;;;;109935;1286;22132;-76
2023/04/11 07:46:47;;;;;;;19.70;10.70;;;;;;;;;;109920;1286;22264;-77
2023/04/11 07:49:16;;;;;;;20.20;10.60;;;;;;;;;;109954;1264;22168;-77
2023/04/11 07:51:42;;;;;;;23.50;10.50;;;;;;;;;;109912;1285;22458;-77
2023/04/11 07:54:08;;;;;;;21.00;11.40;;;;;;;;;;110164;1281;22117;-77
2023/04/11 07:56:45;;;;;;;18.70;10.60;;;;;;;;;;110064;1281;22136;-78
2023/04/11 07:59:17;;;;;;;21.20;11.40;;;;;;;;;;110194;1265;22140;-80
2023/04/11 08:01:43;;;;;;;21.00;11.10;;;;;;;;;;110054;1281;22236;-79
2023/04/11 08:04:10;;;;;;;22.60;11.20;;;;;;;;;;110113;1281;22196;-77
2023/04/11 08:06:36;;;;;;;25.80;11.10;;;;;;;;;;110445;1277;22170;-77
2023/04/11 08:09:04;;;;;;;19.20;10.80;;;;;;;;;;110583;1254;23263;-76
2023/04/11 08:11:30;;;;;;;19.10;11.20;;;;;;;;;;110558;1276;22156;-75
2023/04/11 08:13:56;;;;;;;21.40;10.60;;;;;;;;;;110606;1276;22089;-77
2023/04/11 08:16:22;;;;;;;21.10;11.50;;;;;;;;;;110298;1276;22219;-76
2023/04/11 08:18:50;;;;;;;23.00;11.70;;;;;;;;;;110415;1256;22155;-79
2023/04/11 08:21:45;;;;;;;19.90;10.40;;;;;;;;;;110473;1277;22991;-80
2023/04/11 08:24:11;;;;;;;25.30;10.10;;;;;;;;;;110475;1277;22152;-77
2023/04/11 08:26:37;;;;;;;22.00;10.40;;;;;;;;;;110275;1277;22217;-76
2023/04/11 08:29:03;;;;;;;22.40;11.40;;;;;;;;;;110248;1259;22136;-77
2023/04/11 08:31:31;;;;;;;21.50;12.40;;;;;;;;;;110369;1277;22090;-76
2023/04/11 08:33:59;;;;;;;23.00;12.40;;;;;;;;;;110373;1276;22023;-80
2023/04/11 08:36:26;;;;;;;27.60;11.50;;;;;;;;;;110347;1276;22326;-77
2023/04/11 08:39:03;;;;;;;23.60;12.90;;;;;;;;;;110598;1254;22240;-78
2023/04/11 08:41:33;;;;;;;21.50;12.70;;;;;;;;;;110285;1278;22234;-78
2023/04/11 08:44:00;;;;;;;25.50;13.90;;;;;;;;;;110151;1278;22107;-77
2023/04/11 08:46:27;;;;;;;24.50;13.20;;;;;;;;;;110278;1278;22917;-78
2023/04/11 08:48:56;;;;;;;26.30;13.10;;;;;;;;;;110256;1253;23129;-77
2023/04/11 08:51:26;;;;;;;24.50;13.20;;;;;;;;;;110165;1276;22186;-77
2023/04/11 08:53:56;;;;;;;23.40;12.70;;;;;;;;;;110552;1276;22147;-78
2023/04/11 08:56:32;;;;;;;22.00;13.20;;;;;;;;;;110355;1276;22108;-77
2023/04/11 08:58:58;;;;;;;19.10;10.50;;;;;;;;;;110337;1276;22357;-78
2023/04/11 09:01:30;;;;;;;20.00;11.00;;;;;;;;;;110587;1260;22122;-78
2023/04/11 09:04:00;;;;;;;23.00;12.80;;;;;;;;;;110288;1278;22011;-78
2023/04/11 09:06:29;;;;;;;20.60;10.90;;;;;;;;;;110278;1278;22883;-78
2023/04/11 09:09:07;;;;;;;24.70;12.90;;;;;;;;;;110279;1278;23013;-77
2023/04/11 09:11:53;;;;;;;21.00;11.50;;;;;;;;;;110848;1259;22122;-77
2023/04/11 09:14:47;;;;;;;19.90;11.60;;;;;;;;;;110574;1265;22336;-77
2023/04/11 09:17:16;;;;;;;20.30;11.70;;;;;;;;;;110470;1276;22123;-79
2023/04/11 09:19:46;;;;;;;23.00;11.30;;;;;;;;;;110337;1255;23062;-76
2023/04/11 09:22:14;;;;;;;19.80;10.70;;;;;;;;;;110306;1278;22886;-76
2023/04/11 09:25:00;;;;;;;25.60;12.90;;;;;;;;;;110468;1277;22131;-79
2023/04/11 09:27:27;;;;;;;28.10;11.20;;;;;;;;;;110396;1278;22127;-77
2023/04/11 09:29:54;;;;;;;23.10;12.20;;;;;;;;;;110224;1254;22395;-77
2023/04/11 09:36:52;;;;;;;24.50;13.50;;;;;;;;;;110025;1277;22550;-78
2023/04/11 09:39:19;;;;;;;27.40;13.60;;;;;;;;;;110304;1277;22168;-77
2023/04/11 09:41:45;;;;;;;26.90;13.30;;;;;;;;;;110762;1258;23279;-77
2023/04/11 09:44:11;;;;;;;23.60;12.40;;;;;;;;;;110619;1275;22180;-77
2023/04/11 09:46:58;;;;;;;22.30;12.00;;;;;;;;;;110567;1275;22576;-78
2023/04/11 09:49:24;;;;;;;26.50;13.40;;;;;;;;;;110553;1275;22154;-77
2023/04/11 09:51:55;;;;;;;23.70;13.10;;;;;;;;;;110888;1256;22451;-77
2023/04/11 09:54:30;;;;;;;21.70;11.00;;;;;;;;;;110644;1275;22965;-76
2023/04/11 10:01:26;;;;;;;22.70;12.30;;;;;;;;;;110256;1259;22155;-77
2023/04/11 10:03:54;;;;;;;25.40;14.20;;;;;;;;;;110203;1280;22179;-77
2023/04/11 10:06:30;;;;;;;25.40;13.70;;;;;;;;;;110092;1280;22181;-76
2023/04/11 10:09:04;;;;;;;20.70;11.40;;;;;;;;;;110254;1269;22129;-76
2023/04/11 10:11:30;;;;;;;27.00;13.70;;;;;;;;;;110300;1256;22183;-76
2023/04/11 10:13:56;;;;;;;24.00;13.40;;;;;;;;;;110113;1270;22166;-76
2023/04/11 10:16:24;;;;;;;22.50;13.80;;;;;;;;;;110205;1280;22968;-77
2023/04/11 10:18:52;;;;;;;27.90;15.00;;;;;;;;;;110106;1280;22183;-76
2023/04/11 10:21:27;;;;;;;28.90;14.10;;;;;;;;;;110098;1262;22064;-77
2023/04/11 10:24:05;;;;;;;26.50;16.00;;;;;;;;;;110234;1280;22019;-77
2023/04/11 10:26:56;;;;;;;30.60;16.90;;;;;;;;;;110193;1280;22128;-76
2023/04/11 10:29:28;;;;;;;23.40;12.50;;;;;;;;;;110091;1280;22825;-78
2023/04/11 10:32:18;;;;;;;27.20;13.30;;;;;;;;;;110249;1262;22167;-77
2023/04/11 10:34:50;;;;;;;28.30;14.50;;;;;;;;;;110483;1275;22849;-77
2023/04/11 10:37:32;;;;;;;25.20;12.60;;;;;;;;;;110474;1275;22911;-80
2023/04/11 10:40:01;;;;;;;24.20;11.80;;;;;;;;;;110488;1269;22203;-81
2023/04/11 10:42:27;;;;;;;14.60;6.40;;;;;;;;;;110695;1259;22153;-80
2023/04/11 10:45:11;;;;;;;17.70;7.30;;;;;;;;;;110621;1275;22883;-81
2023/04/11 10:48:06;;;;;;;12.90;5.50;;;;;;;;;;110207;1276;23278;-81
2023/04/11 10:50:35;;;;;;;8.90;3.80;;;;;;;;;;110519;1274;22169;-80
2023/04/11 10:53:22;;;;;;;10.60;4.40;;;;;;;;;;110795;1256;22205;-81
2023/04/11 10:55:50;;;;;;;10.70;4.70;;;;;;;;;;110403;1276;22414;-81
2023/04/11 10:58:32;;;;;;;9.90;3.90;;;;;;;;;;110641;1276;22120;-81
2023/04/11 11:00:58;;;;;;;13.00;3.70;;;;;;;;;;110471;1276;22130;-83
2023/04/11 11:03:25;;;;;;;9.00;3.50;;;;;;;;;;110830;1256;22240;-81
2023/04/11 11:06:06;;;;;;;7.80;3.00;;;;;;;;;;110550;1274;22147;-81
2023/04/11 11:08:36;;;;;;;8.10;2.70;;;;;;;;;;110508;1266;22958;-81
2023/04/11 11:11:07;;;;;;;9.70;4.20;;;;;;;;;;110684;1274;22119;-80
2023/04/11 11:13:44;;;;;;;7.70;3.00;;;;;;;;;;110740;1256;22968;-82
2023/04/11 11:16:26;;;;;;;9.20;4.10;;;;;;;;;;110696;1276;22151;-81
2023/04/11 11:18:53;;;;;;;10.00;3.50;;;;;;;;;;110655;1276;22139;-81
2023/04/11 11:21:25;;;;;;;10.00;3.80;;;;;;;;;;110465;1276;21670;-81
2023/04/11 11:23:52;;;;;;;8.30;3.60;;;;;;;;;;110682;1256;22332;-81
2023/04/11 11:26:23;;;;;;;9.80;4.20;;;;;;;;;;110579;1275;22856;-81
2023/04/11 11:28:53;;;;;;;12.80;6.00;;;;;;;;;;110607;1275;22116;-81
2023/04/11 11:31:19;;;;;;;9.90;4.30;;;;;;;;;;110644;1275;22606;-81
2023/04/11 11:33:45;;;;;;;10.20;5.50;;;;;;;;;;110593;1254;22871;-81
2023/04/11 11:36:16;;;;;;;10.30;4.70;;;;;;;;;;110482;1276;22120;-82
2023/04/11 11:38:54;;;;;;;11.60;5.50;;;;;;;;;;110399;1276;22196;-81
2023/04/11 11:41:20;;;;;;;9.20;2.80;;;;;;;;;;110365;1276;22156;-82
2023/04/11 11:47:43;;;;;;;19.80;10.10;;;;;;;;;;110115;1281;21816;-82
2023/04/11 11:50:38;;;;;;;;;;;;;;;;;;;;;
2023/04/11 11:53:47;;;;;;;18.40;5.50;;;;;;;;;;110142;1263;22140;-82
2023/04/11 11:56:32;;;;;;;8.40;2.70;;;;;;;;;;110120;1281;22208;-81
2023/04/11 11:59:03;;;;;;;13.30;3.50;;;;;;;;;;110109;1281;22223;-83
2023/04/11 12:01:30;;;;;;;9.60;3.20;;;;;;;;;;110061;1281;22232;-81
2023/04/11 12:04:21;;;;;;;8.70;2.60;;;;;;;;;;110075;1263;22310;-81
2023/04/11 12:06:47;;;;;;;9.00;2.70;;;;;;;;;;110073;1281;22176;-81
2023/04/11 12:09:14;;;;;;;9.70;2.80;;;;;;;;;;110009;1281;22892;-82
2023/04/11 12:11:56;;;;;;;6.90;1.80;;;;;;;;;;110077;1281;22082;-81
2023/04/11 12:14:38;;;;;;;6.30;2.10;;;;;;;;;;110145;1265;22140;-81
2023/04/11 12:17:10;;;;;;;6.00;2.50;;;;;;;;;;110100;1281;22161;-81
2023/04/11 12:19:40;;;;;;;6.20;2.10;;;;;;;;;;110061;1281;23104;-82
2023/04/11 12:22:09;;;;;;;6.90;2.50;;;;;;;;;;110018;1281;22355;-81
2023/04/11 12:24:49;;;;;;;12.10;5.90;;;;;;;;;;110763;1256;22156;-80
2023/04/11 12:27:15;;;;;;;12.10;6.30;;;;;;;;;;110643;1273;23088;-80
2023/04/11 12:34:14;;;;;;;7.90;2.30;;;;;;;;;;110066;1262;22046;-80
2023/04/11 12:36:40;;;;;;;6.90;2.60;;;;;;;;;;109982;1282;22267;-81
2023/04/11 12:39:07;;;;;;;7.30;2.70;;;;;;;;;;110031;1282;22159;-81
2023/04/11 12:41:34;;;;;;;11.90;2.80;;;;;;;;;;110014;1272;22176;-82
2023/04/11 12:44:02;;;;;;;10.30;3.10;;;;;;;;;;110020;1260;22173;-80
2023/04/11 12:46:29;;;;;;;7.80;2.00;;;;;;;;;;109946;1282;22130;-80
2023/04/11 12:48:55;;;;;;;10.00;2.90;;;;;;;;;;109989;1282;22401;-80
2023/04/11 12:51:21;;;;;;;6.50;2.40;;;;;;;;;;110055;1282;22153;-79
2023/04/11 12:53:47;;;;;;;8.40;2.30;;;;;;;;;;110008;1282;23078;-77
2023/04/11 12:56:13;;;;;;;10.30;2.90;;;;;;;;;;109964;1269;22132;-80
2023/04/11 12:58:39;;;;;;;9.60;2.70;;;;;;;;;;110009;1282;22141;-79
2023/04/11 13:01:06;;;;;;;6.80;1.80;;;;;;;;;;110381;1276;22642;-79
2023/04/11 13:03:32;;;;;;;11.50;3.40;;;;;;;;;;110641;1273;22601;-78
2023/04/11 13:05:59;;;;;;;7.30;2.50;;;;;;;;;;110750;1258;22130;-79
2023/04/11 13:08:26;;;;;;;8.90;2.60;;;;;;;;;;110444;1276;22153;-78
2023/04/11 13:10:52;;;;;;;8.20;2.10;;;;;;;;;;110476;1276;23210;-79
2023/04/11 13:13:18;;;;;;;10.90;3.40;;;;;;;;;;110495;1276;22338;-83
2023/04/11 13:15:45;;;;;;;9.10;2.60;;;;;;;;;;110568;1260;22123;-78
2023/04/11 13:18:14;;;;;;;8.60;2.30;;;;;;;;;;110479;1276;22125;-78
2023/04/11 13:20:41;;;;;;;6.30;1.80;;;;;;;;;;110635;1276;22108;-78
2023/04/11 13:23:07;;;;;;;7.70;2.50;;;;;;;;;;110634;1276;22005;-78
2023/04/11 13:25:34;;;;;;;12.10;3.90;;;;;;;;;;110582;1257;22126;-78
2023/04/11 13:28:01;;;;;;;7.50;2.10;;;;;;;;;;110300;1278;22087;-78
2023/04/11 13:30:28;;;;;;;15.80;4.10;;;;;;;;;;110282;1277;22118;-79
2023/04/11 13:33:03;;;;;;;8.50;2.40;;;;;;;;;;110339;1277;22830;-78
2023/04/11 13:35:30;;;;;;;7.80;2.60;;;;;;;;;;110615;1257;22992;-78
2023/04/11 13:37:56;;;;;;;11.10;3.50;;;;;;;;;;110460;1276;22226;-78
2023/04/11 13:40:23;;;;;;;22.00;5.90;;;;;;;;;;110457;1276;22796;-78
2023/04/11 13:42:50;;;;;;;10.60;2.90;;;;;;;;;;110641;1276;22877;-78
2023/04/11 13:45:18;;;;;;;15.10;4.00;;;;;;;;;;110374;1269;22253;-77
2023/04/11 13:47:44;;;;;;;10.20;2.20;;;;;;;;;;110112;1278;22116;-78
2023/04/11 13:50:12;;;;;;;25.40;7.10;;;;;;;;;;110224;1278;22156;-77
2023/04/11 13:52:38;;;;;;;30.90;7.70;;;;;;;;;;110416;1278;21980;-78
2023/04/11 13:55:06;;;;;;;7.40;2.50;;;;;;;;;;110212;1254;22402;-79
2023/04/11 13:57:33;;;;;;;6.40;1.70;;;;;;;;;;110341;1276;22919;-78
2023/04/11 14:00:00;;;;;;;7.20;2.20;;;;;;;;;;110454;1276;22121;-77
2023/04/11 14:02:27;;;;;;;10.30;3.60;;;;;;;;;;110472;1276;22118;-78
2023/04/11 14:04:55;;;;;;;12.00;3.80;;;;;;;;;;110301;1276;22492;-77
2023/04/11 14:07:21;;;;;;;13.80;4.20;;;;;;;;;;110718;1260;22858;-78
2023/04/11 14:09:48;;;;;;;19.30;6.60;;;;;;;;;;110460;1277;22139;-77
2023/04/11 14:12:14;;;;;;;11.10;4.50;;;;;;;;;;110463;1277;22845;-79
2023/04/11 14:14:41;;;;;;;19.60;9.00;;;;;;;;;;110285;1277;22029;-78
2023/04/11 14:17:10;;;;;;;15.20;6.90;;;;;;;;;;110778;1257;22865;-78
2023/04/11 14:19:38;;;;;;;10.30;4.60;;;;;;;;;;110625;1276;22122;-79
2023/04/11 14:22:05;;;;;;;12.80;4.80;;;;;;;;;;110239;1276;22117;-78
2023/04/11 14:24:32;;;;;;;13.70;5.20;;;;;;;;;;110329;1276;22133;-78
2023/04/11 14:27:01;;;;;;;11.20;3.70;;;;;;;;;;110449;1263;22173;-77
2023/04/11 14:29:49;;;;;;;;;;;;;;;;;;;;;
2023/04/11 14:36:34;;;;;;;14.60;4.60;;;;;;;;;;110009;1273;22183;-82
2023/04/11 14:39:04;;;;;;;12.90;3.70;;;;;;;;;;109963;1282;22823;-83
2023/04/11 14:41:33;;;;;;;14.80;3.90;;;;;;;;;;109941;1283;22796;-83
2023/04/11 14:44:02;;;;;;;15.30;4.20;;;;;;;;;;109989;1282;22230;-82
2023/04/11 14:46:31;;;;;;;10.10;3.30;;;;;;;;;;110033;1266;22145;-84
2023/04/11 14:49:00;;;;;;;21.90;6.90;;;;;;;;;;110037;1282;22464;-82
2023/04/11 14:51:49;;;;;;;12.50;5.00;;;;;;;;;;110015;1282;22156;-82
2023/04/11 14:54:21;;;;;;;17.40;5.50;;;;;;;;;;110021;1282;22861;-82
2023/04/11 14:56:50;;;;;;;12.70;5.70;;;;;;;;;;109979;1274;23338;-82
2023/04/11 14:59:23;;;;;;;12.30;4.30;;;;;;;;;;110011;1282;22167;-81
2023/04/11 15:06:05;;;;;;;9.80;4.40;;;;;;;;;;109616;1290;22207;-81
2023/04/11 15:08:35;;;;;;;10.50;5.50;;;;;;;;;;110073;1273;22861;-81
2023/04/11 15:11:23;;;;;;;9.80;4.90;;;;;;;;;;110286;1278;22354;-80
2023/04/11 15:14:03;;;;;;;8.40;3.80;;;;;;;;;;110308;1277;22776;-81
2023/04/11 15:16:33;;;;;;;14.50;7.90;;;;;;;;;;110439;1278;22142;-81
2023/04/11 15:19:12;;;;;;;;;;;;;;;;;;;;;
2023/04/11 15:34:00;;;;;;;10.60;4.20;;;;;;;;;;104222;1292;544975;-82
2023/04/11 15:36:47;;;;;;;10.80;3.70;;;;;;;;;;106922;1276;25230;-84
2023/04/11 15:39:50;;;;;;;;;;;;;;;;;;;;;
2023/04/11 15:42:22;;;;;;;8.30;3.20;;;;;;;;;;106983;1276;22983;-80
2023/04/11 15:45:10;;;;;;;;;;;;;;;;;;;;;
2023/04/11 15:47:39;;;;;;;9.40;3.20;;;;;;;;;;103164;1275;5088824;-82
2023/04/11 15:50:07;;;;;;;7.70;2.60;;;;;;;;;;106930;1275;24324;-81
2023/04/11 15:52:46;;;;;;;8.00;2.70;;;;;;;;;;107010;1254;22658;-80
2023/04/11 15:55:16;;;;;;;7.40;2.30;;;;;;;;;;106961;1274;25334;-83
2023/04/11 15:58:40;;;;;;;6.50;2.20;;;;;;;;;;106946;1274;22541;-81
2023/04/11 16:00:53;;;;;;;6.80;1.70;;;;;;;;;;107068;1274;24667;-79